Latest Coastal Weather Observations for Cape Bruny AWS

IDT60701

Issued at 8:21 pm EST Thursday 5 May 2016 (issued every 10 minutes, with the page automatically refreshed every 10 minutes)

About coastal observations | Map of coastal stations | Coastal observations for TAS | Marine services | Other Formats
Station Details ID: 094198 Name: CAPE BRUNY (CAPE BRUNY) Lat: -43.49 Lon: 147.14 Height: 59.7 m
Data from the previous 72 hours. | See also: Recent months at Cape Bruny AWS
Date/Time
EST
Temp

°C
Wind Pressure Rain
since 9am
mm
Weather Cloud Vis
km
Sea
Height
m
Swell
Dir
 
Speed
knots
Gust
knots
hPa Trend Height
m
Period
s
Dir
05/08:00pm 15.9 N 11 20 1001.4 - 0.0 - - - - - - -
05/07:30pm 16.4 NNW 10 15 1001.6 - 0.0 - - - - - - -
05/07:00pm 15.9 N 9 16 1001.7 - 0.0 - - - - - - -
05/06:30pm 16.0 N 8 13 1001.8 - 0.0 - - - - - - -
05/06:00pm 16.4 N 10 14 1001.9 - 0.0 - - - - - - -
05/05:30pm 16.5 NNW 11 17 1002.1 - 0.0 - - - - - - -
05/05:00pm 16.0 N 9 13 1001.7 - 0.0 - - - - - - -
05/04:30pm 16.6 N 7 10 1002.0 - 0.0 - - - - - - -
05/04:00pm 16.6 NW 14 21 1002.6 - 0.0 - - - - - - -
05/03:48pm 17.3 NW 15 23 1002.4 - 0.0 - - - - - - -
05/03:30pm 17.7 NNW 9 13 1001.8 - 0.0 - - - - - - -
05/03:00pm 17.7 NW 15 22 1002.3 - 0.0 - - - - - - -
05/02:30pm 17.9 NNW 12 17 1002.1 - 0.0 - - - - - - -
05/02:00pm 18.0 NNW 11 15 1002.7 - 0.0 - - - - - - -
05/01:30pm 17.7 N 10 13 1002.7 - 0.0 - - - - - - -
05/01:00pm 19.1 NNW 8 14 1002.9 - 0.0 - - - - - - -
05/12:30pm 19.6 N 11 17 1003.6 - 0.0 - - - - - - -
05/12:00pm 18.5 NNE 10 13 1004.3 - 0.0 - - - - - - -
05/11:30am 17.7 NNW 12 18 1004.8 - 0.0 - - - - - - -
05/11:00am 16.9 N 11 16 1004.9 - 0.0 - - - - - - -
05/10:30am 17.8 NNW 13 19 1005.2 - 0.0 - - - - - - -
05/10:00am 15.8 N 10 17 1005.4 - 0.0 - - - - - - -
05/09:49am 16.8 N 14 30 1005.0 - 0.0 - - - - - - -
05/09:30am 15.6 N 12 17 1005.1 - 0.0 - - - - - - -
05/09:00am 14.2 N 12 18 1005.9 - 0.0 - - - - - - -
05/08:30am 14.3 N 10 15 1005.5 - 0.0 - - - - - - -
05/08:00am 14.3 NNE 9 14 1005.3 - 0.0 - - - - - - -
05/07:30am 14.6 N 12 19 1004.4 - 0.0 - - - - - - -
05/07:00am 12.6 N 9 15 1004.2 - 0.0 - - - - - - -
05/06:30am 14.2 N 11 18 1004.7 - 0.0 - - - - - - -
05/06:00am 14.1 NNE 9 17 1003.8 - 0.0 - - - - - - -
05/05:30am 14.1 NNW 13 19 1003.4 - 0.0 - - - - - - -
05/05:00am 14.7 N 9 17 1003.4 - 0.0 - - - - - - -
05/04:31am 15.3 NW 17 27 1003.0 - 0.0 - - - - - - -
05/04:30am 15.3 NW 18 27 1003.0 - 0.0 - - - - - - -
05/04:24am 15.4 NW 15 27 1002.9 - 0.0 - - - - - - -
05/04:00am 14.6 NNW 11 19 1003.0 - 0.0 - - - - - - -
05/03:30am 14.4 NNW 9 19 1003.1 - 0.0 - - - - - - -
05/03:00am 14.4 N 9 15 1002.7 - 0.0 - - - - - - -
05/02:30am 14.1 N 8 18 1002.9 - 0.0 - - - - - - -
05/02:00am 14.5 NNW 13 25 1002.6 - 0.0 - - - - - - -
05/01:30am 13.9 N 10 16 1002.5 - 0.0 - - - - - - -
05/01:00am 13.9 NNW 11 17 1002.8 - 0.0 - - - - - - -
05/12:30am 13.8 NNW 12 17 1003.0 - 0.0 - - - - - - -
05/12:00am 13.8 N 11 18 1003.1 - 0.0 - - - - - - -
 
Date/Time
EST
Temp

°C
Wind Pressure Rain
since 9am
mm
Weather Cloud Vis
km
Sea
Height
m
Swell
Dir
 
Speed
knots
Gust
knots
hPa Trend Height
m
Period
s
Dir
04/11:30pm 13.5 N 12 19 1003.0 - 0.0 - - - - - - -
04/11:00pm 13.2 NNE 12 18 1003.5 - 0.0 - - - - - - -
04/10:30pm 12.9 NNE 12 21 1003.7 - 0.0 - - - - - - -
04/10:00pm 12.7 N 13 21 1003.8 - 0.0 - - - - - - -
04/09:30pm 12.7 N 9 14 1004.2 - 0.0 - - - - - - -
04/09:00pm 12.4 NNW 10 17 1004.3 - 0.0 - - - - - - -
04/08:30pm 12.4 N 11 17 1004.0 - 0.0 - - - - - - -
04/08:00pm 12.3 N 13 19 1004.4 - 0.0 - - - - - - -
04/07:30pm 11.9 N 10 15 1004.4 - 0.0 - - - - - - -
04/07:00pm 12.2 NNW 11 18 1004.9 - 0.0 - - - - - - -
04/06:30pm 12.2 N 9 14 1004.4 - 0.0 - - - - - - -
04/06:00pm 12.3 N 11 17 1004.3 - 0.0 - - - - - - -
04/05:30pm 12.1 N 12 17 1004.1 - 0.0 - - - - - - -
04/05:00pm 11.6 NW 11 15 1004.3 - 0.0 - - - - - - -
04/04:30pm 11.9 NNW 12 23 1004.2 - 0.0 - - - - - - -
04/04:00pm 12.4 NW 17 28 1004.0 - 0.0 - - - - - - -
04/03:47pm 11.9 NW 15 25 1004.1 - 0.0 - - - - - - -
04/03:30pm 11.8 NW 13 23 1004.2 - 0.0 - - - - - - -
04/03:00pm 11.5 NNW 12 18 1004.0 - 0.0 - - - - - - -
04/02:30pm 11.9 NNW 14 20 1003.9 - 0.0 - - - - - - -
04/02:00pm 11.7 NNW 11 16 1004.1 - 0.0 - - - - - - -
04/01:30pm 13.0 NW 16 22 1003.9 - 0.0 - - - - - - -
04/01:00pm 14.0 NW 11 18 1004.1 - 0.0 - - - - - - -
04/12:30pm 12.8 NW 10 16 1004.2 - 0.0 - - - - - - -
04/12:00pm 12.7 WNW 11 15 1004.3 - 0.0 - - - - - - -
04/11:30am 11.8 NW 12 15 1004.6 - 0.0 - - - - - - -
04/11:00am 11.5 NW 15 21 1004.7 - 0.0 - - - - - - -
04/10:30am 10.5 NW 16 20 1004.4 - 0.0 - - - - - - -
04/10:00am 9.9 NW 16 23 1004.5 - 0.0 - - - - - - -
04/09:49am 10.3 WNW 20 30 1004.6 - 0.0 - - - - - - -
04/09:47am 10.0 WNW 21 30 1004.7 - 0.0 - - - - - - -
04/09:30am 10.0 WNW 16 20 1004.3 - 0.0 - - - - - - -
04/09:00am 9.3 WNW 19 26 1003.9 - 6.8 - - - - - - -
04/08:30am 8.8 NW 17 22 1003.8 - 6.8 - - - - - - -
04/08:00am 8.1 NW 15 21 1003.1 - 6.8 - - - - - - -
04/07:53am 7.8 NW 16 20 1003.0 - 6.8 - - - - - - -
04/07:30am 7.3 WNW 24 35 1002.6 - 6.8 - - - - - - -
04/07:00am 7.9 WNW 26 39 1001.4 - 6.6 - - - - - - -
04/06:58am 7.8 WNW 24 39 1001.6 - 6.6 - - - - - - -
04/06:52am 7.3 NW 18 29 1001.8 - 6.6 - - - - - - -
04/06:30am 7.4 NW 20 27 1001.2 - 6.6 - - - - - - -
04/06:29am 7.4 NW 20 27 1001.2 - 6.6 - - - - - - -
04/06:00am 6.0 NNW 13 18 1000.7 - 6.6 - - - - - - -
04/05:30am 6.7 NW 18 24 1000.3 - 6.6 - - - - - - -
04/05:00am 6.8 NW 21 29 999.6 - 6.6 - - - - - - -
04/04:38am 6.7 NW 18 28 999.0 - 6.4 - - - - - - -
04/04:30am 6.7 WNW 16 22 998.9 - 6.4 - - - - - - -
04/04:00am 6.6 WNW 21 31 998.6 - 6.4 - - - - - - -
04/03:40am 7.8 NW 20 30 997.7 - 6.0 - - - - - - -
04/03:30am 7.5 NW 21 29 997.0 - 6.0 - - - - - - -
04/03:00am 7.5 WNW 23 31 996.6 - 6.0 - - - - - - -
04/02:43am 7.5 WNW 18 27 996.5 - 6.0 - - - - - - -
04/02:30am 7.5 WNW 27 34 996.4 - 6.0 - - - - - - -
04/02:00am 7.2 WNW 21 31 995.9 - 6.0 - - - - - - -
04/01:37am 6.8 NW 17 27 996.2 - 6.0 - - - - - - -
04/01:30am 6.7 NW 20 27 996.2 - 6.0 - - - - - - -
04/01:00am 6.5 NW 19 30 995.9 - 6.0 - - - - - - -
04/12:49am 6.7 NW 15 29 995.4 - 5.8 - - - - - - -
04/12:30am 6.5 NW 14 20 995.4 - 5.6 - - - - - - -
04/12:10am 6.5 WNW 16 26 995.2 - 5.6 - - - - - - -
04/12:00am 7.4 WNW 17 24 995.5 - 5.0 Rain - - - - - -
 
Date/Time
EST
Temp

°C
Wind Pressure Rain
since 9am
mm
Weather Cloud Vis
km
Sea
Height
m
Swell
Dir
 
Speed
knots
Gust
knots
hPa Trend Height
m
Period
s
Dir
03/11:58pm 7.2 WNW 17 24 995.4 - 4.8 - - - - - - -
03/11:30pm 7.5 NW 21 27 994.1 - 4.4 - - - - - - -
03/11:00pm 7.5 NW 18 25 993.5 - 4.4 - - - - - - -
03/10:30pm 7.5 NW 17 23 993.8 - 4.4 - - - - - - -
03/10:00pm 7.9 NW 22 35 993.5 - 4.4 - - - - - - -
03/09:53pm 7.8 NW 16 28 993.7 - 4.4 - - - - - - -
03/09:30pm 7.1 NNW 13 19 993.3 - 4.4 - - - - - - -
03/09:00pm 7.2 NW 17 22 992.6 - 4.4 Recent precip. - - - - - -
03/08:47pm 7.1 NW 17 30 992.5 - 4.4 - - - - - - -
03/08:30pm 7.7 NW 14 22 992.5 - 4.0 - - - - - - -
03/08:00pm 7.1 NW 24 29 991.7 - 4.0 - - - - - - -
03/07:54pm 7.0 NW 22 29 991.5 - 4.0 - - - - - - -
03/07:30pm 6.7 WNW 12 18 991.5 - 4.0 - - - - - - -
03/07:00pm 6.8 W 25 39 991.5 - 4.0 - - - - - - -
03/06:55pm 6.9 W 26 39 991.5 - 3.8 - - - - - - -
03/06:52pm 7.4 W 24 39 991.4 - 3.4 - - - - - - -
03/06:45pm 8.0 W 18 28 991.1 - 3.0 - - - - - - -
03/06:30pm 8.0 W 11 17 990.7 - 3.0 - - - - - - -
03/06:00pm 7.7 N 10 13 990.0 - 2.8 - - - - - - -
03/05:30pm 7.7 NNW 13 18 989.2 - 2.8 - - - - - - -
03/05:00pm 7.8 NW 16 23 988.1 - 2.8 - - - - - - -
03/04:35pm 8.5 WNW 16 27 988.4 - 2.0 - - - - - - -
03/04:30pm 8.6 NW 13 19 988.1 - 1.8 - - - - - - -
03/04:00pm 9.2 NW 10 20 987.7 - 1.2 - - - - - - -
03/03:30pm 8.9 WNW 16 25 987.7 - 1.2 - - - - - - -
03/03:13pm 10.0 NW 12 24 987.9 - 1.2 - - - - - - -
03/03:00pm 10.3 NW 6 9 987.9 - 1.2 - - - - - - -
03/02:30pm 10.2 NNW 9 13 987.4 - 1.2 - - - - - - -
03/02:00pm 10.1 NW 7 11 987.5 - 1.2 - - - - - - -
03/01:30pm 10.2 WNW 12 17 986.9 - 1.2 - - - - - - -
03/01:00pm 9.8 WNW 13 20 987.0 - 1.2 - - - - - - -
03/12:30pm 8.4 WNW 16 23 987.6 - 1.0 - - - - - - -
03/12:00pm 8.8 WNW 11 17 988.4 - 0.4 Rain - - - - - -
03/11:30am 9.7 WNW 18 23 988.9 - 0.0 - - - - - - -
03/11:00am 9.8 NW 15 19 988.5 - 0.0 - - - - - - -
03/10:30am 10.1 NW 16 21 988.3 - 0.0 - - - - - - -
03/10:00am 10.0 NW 13 20 987.5 - 0.0 - - - - - - -
03/09:30am 9.6 NNW 12 17 987.5 - 0.0 - - - - - - -
03/09:00am 9.9 NW 18 25 988.0 - 9.2 Recent precip. - - - - - -
03/08:37am 10.1 WNW 21 31 988.0 - 9.2 - - - - - - -
03/08:30am 10.1 WNW 23 29 988.1 - 9.2 - - - - - - -
03/08:06am 10.7 W 15 25 987.9 - 9.0 - - - - - - -
03/08:00am 10.8 W 12 19 987.8 - 9.0 - - - - - - -
03/07:30am 11.4 WNW 8 14 987.4 - 8.8 - - - - - - -
03/07:00am 11.1 NNW 7 11 986.8 - 8.8 - - - - - - -
03/06:30am 10.8 N 10 15 986.6 - 8.4 - - - - - - -
03/06:00am 10.9 NW 12 15 986.6 - 8.2 Recent precip. - - - - - -
03/05:30am 11.1 NW 13 19 986.9 - 7.8 - - - - - - -
03/05:26am 11.2 NW 15 25 986.9 - 7.8 - - - - - - -
03/05:00am 11.9 NW 17 25 986.3 - 7.0 - - - - - - -
03/04:30am 11.5 NW 15 23 986.7 - 7.0 - - - - - - -
03/04:15am 11.5 NNW 13 22 987.1 - 7.0 - - - - - - -
03/04:00am 11.2 N 8 11 987.3 - 7.0 - - - - - - -
03/03:30am 11.4 WNW 9 14 988.5 - 6.4 - - - - - - -
03/03:00am 11.4 WNW 13 19 988.1 - 6.2 Rain - - - - - -
03/02:48am 11.3 W 10 21 988.7 - 5.6 - - - - - - -
03/02:30am 11.1 SSE 2 8 988.7 - 5.2 - - - - - - -
03/02:00am 11.5 W 6 10 988.6 - 5.0 - - - - - - -
03/01:30am 11.7 W 15 20 988.7 - 4.4 - - - - - - -
03/01:14am 11.9 W 22 27 988.5 - 2.2 - - - - - - -
03/01:00am 12.0 W 31 38 988.0 - 1.2 - - - - - - -
03/12:45am 14.6 WNW 24 39 987.8 - 0.0 - - - - - - -
03/12:43am 15.6 WNW 22 30 987.8 - 0.0 - - - - - - -
03/12:30am 17.2 NW 22 33 987.4 - 0.0 - - - - - - -
03/12:00am 16.9 NW 16 30 987.2 - 0.0 - - - - - - -
 
Date/Time
EST
Temp

°C
Wind Pressure Rain
since 9am
mm
Weather Cloud Vis
km
Sea
Height
m
Swell
Dir
 
Speed
knots
Gust
knots
hPa Trend Height
m
Period
s
Dir
02/11:30pm 16.5 NW 19 30 987.0 - 0.0 - - - - - - -
02/11:10pm 16.5 NNW 16 28 987.4 - 0.0 - - - - - - -
02/11:00pm 16.3 NNW 15 24 987.8 - 0.0 - - - - - - -
02/10:31pm 15.7 NW 15 25 988.4 - 0.0 - - - - - - -
02/10:30pm 15.8 NW 16 25 988.4 - 0.0 - - - - - - -
02/10:00pm 15.6 NNW 15 22 988.6 - 0.0 - - - - - - -
02/09:30pm 15.9 NNW 15 23 989.3 - 0.0 - - - - - - -
02/09:00pm 15.6 NNW 13 20 989.8 - 0.0 - - - - - - -
02/08:30pm 15.2 NNW 13 22 990.4 - 0.0 - - - - - - -

Other Formats:

Comma delimited format used in spreadsheet applications
http://www.bom.gov.au/fwo/IDT60701/IDT60701.95967.axf

JavaScript Object Notation format (JSON) in row-major order
http://www.bom.gov.au/fwo/IDT60701/IDT60701.95967.json